createdAt,value
2018-07-07T00:01:43.735Z,99961.42
2018-07-07T00:04:13.929Z,99962.37
2018-07-07T00:06:44.110Z,99958.59
2018-07-07T00:09:14.315Z,99958.00
2018-07-07T00:11:44.592Z,99960.91
2018-07-07T00:14:14.889Z,99956.61
2018-07-07T00:16:45.349Z,99957.64
2018-07-07T00:19:15.527Z,99961.82
2018-07-07T00:21:45.714Z,99962.78
2018-07-07T00:24:15.948Z,99959.19
2018-07-07T00:26:46.190Z,99955.84
2018-07-07T00:29:16.440Z,99952.26
2018-07-07T00:31:46.756Z,99950.26
2018-07-07T00:34:17.846Z,99952.98
2018-07-07T00:36:48.181Z,99950.36
2018-07-07T00:39:18.749Z,99955.57
2018-07-07T00:41:49.054Z,99949.00
2018-07-07T00:44:19.293Z,99955.64
2018-07-07T00:46:49.530Z,99957.19
2018-07-07T00:49:19.749Z,99950.41
2018-07-07T00:51:49.948Z,99953.34
2018-07-07T00:54:20.281Z,99953.82
2018-07-07T00:56:50.751Z,99956.52
2018-07-07T00:59:21.020Z,99946.20
2018-07-07T01:01:51.262Z,99949.32
2018-07-07T01:04:21.231Z,99952.25
2018-07-07T01:06:51.454Z,99952.45
2018-07-07T01:09:21.700Z,99959.58
2018-07-07T01:11:52.093Z,99963.19
2018-07-07T01:14:22.138Z,99952.61
2018-07-07T01:16:52.341Z,99959.02
2018-07-07T01:19:22.557Z,99956.03
2018-07-07T01:21:52.773Z,99956.85
2018-07-07T01:24:22.769Z,99952.14
2018-07-07T01:26:53.004Z,99948.58
2018-07-07T01:29:23.224Z,99945.89
2018-07-07T01:31:53.478Z,99953.52
2018-07-07T01:34:23.845Z,99949.61
2018-07-07T01:36:54.256Z,99943.59
2018-07-07T01:39:24.225Z,99945.34
2018-07-07T01:41:54.565Z,99943.44
2018-07-07T01:44:24.504Z,99946.83
2018-07-07T01:46:54.707Z,99945.11
2018-07-07T01:49:24.942Z,99939.24
2018-07-07T01:51:55.110Z,99942.09
2018-07-07T01:54:25.101Z,99945.41
2018-07-07T01:56:55.281Z,99957.07
2018-07-07T01:59:25.483Z,99950.14
2018-07-07T02:01:55.689Z,99953.42
2018-07-07T02:04:25.686Z,99949.83
2018-07-07T02:06:55.868Z,99956.05
2018-07-07T02:09:26.430Z,99944.23
2018-07-07T02:11:56.602Z,99948.84
2018-07-07T02:14:26.896Z,99952.78
2018-07-07T02:16:57.095Z,99955.30
2018-07-07T02:19:27.044Z,99951.08
2018-07-07T02:21:57.222Z,99948.34
2018-07-07T02:24:27.203Z,99949.86
2018-07-07T02:26:57.165Z,99942.36
2018-07-07T02:29:27.326Z,99945.72
2018-07-07T02:31:57.634Z,99943.52
2018-07-07T02:34:27.813Z,99946.47
2018-07-07T02:36:57.978Z,99938.29
2018-07-07T02:39:28.201Z,99945.72
2018-07-07T02:41:58.508Z,99949.64
2018-07-07T02:44:28.686Z,99950.67
2018-07-07T02:46:58.915Z,99950.92
2018-07-07T02:49:29.122Z,99959.95
2018-07-07T02:51:59.347Z,99956.20
2018-07-07T02:54:29.526Z,99962.13
2018-07-07T02:57:00.068Z,99964.57
2018-07-07T02:59:30.242Z,99962.25
2018-07-07T03:02:00.826Z,99965.02
2018-07-07T03:04:31.047Z,99965.36
2018-07-07T03:07:01.271Z,99966.67
2018-07-07T03:09:31.495Z,99973.52
2018-07-07T03:12:01.745Z,99964.97
2018-07-07T03:14:31.955Z,99977.17
2018-07-07T03:17:02.166Z,99974.59
2018-07-07T03:19:32.374Z,99983.70
2018-07-07T03:22:02.590Z,99987.53
2018-07-07T03:24:40.286Z,99990.09
2018-07-07T03:27:10.502Z,99985.26
2018-07-07T03:29:40.670Z,99991.47
2018-07-07T03:32:10.895Z,99989.36
2018-07-07T03:34:41.087Z,99989.42
2018-07-07T03:37:11.263Z,99993.47
2018-07-07T03:39:41.450Z,99995.64
2018-07-07T03:42:11.781Z,99994.59
2018-07-07T03:44:41.983Z,100000.56
2018-07-07T03:47:12.173Z,99998.25
2018-07-07T03:49:42.385Z,100000.15
2018-07-07T03:52:12.930Z,100007.95
2018-07-07T03:54:43.428Z,100012.40
2018-07-07T03:57:13.615Z,100014.14
2018-07-07T03:59:43.624Z,100016.99
2018-07-07T04:02:13.823Z,100015.80
2018-07-07T04:04:44.044Z,100018.90
2018-07-07T04:07:14.270Z,100018.78
2018-07-07T04:09:44.497Z,100018.66
2018-07-07T04:12:14.711Z,100019.04
2018-07-07T04:14:44.963Z,100020.45
2018-07-07T04:17:15.177Z,100021.35
2018-07-07T04:19:45.365Z,100019.61
2018-07-07T04:22:15.560Z,100020.00
2018-07-07T04:24:45.751Z,100026.60
2018-07-07T04:27:15.959Z,100022.35
2018-07-07T04:29:46.181Z,100026.73
2018-07-07T04:32:16.349Z,100032.78
2018-07-07T04:34:46.632Z,100028.80
2018-07-07T04:37:16.793Z,100034.80
2018-07-07T04:39:47.009Z,100038.39
2018-07-07T04:42:17.329Z,100040.31
2018-07-07T04:44:47.557Z,100033.30
2018-07-07T04:47:17.754Z,100037.11
2018-07-07T04:49:47.946Z,100034.38
2018-07-07T04:52:18.115Z,100036.23
2018-07-07T04:54:48.315Z,100036.48
2018-07-07T04:57:18.544Z,100032.02
2018-07-07T04:59:48.709Z,100036.19
2018-07-07T05:02:19.682Z,100045.55
2018-07-07T05:04:50.469Z,100039.43
2018-07-07T05:07:20.687Z,100041.20
2018-07-07T05:09:50.857Z,100040.75
2018-07-07T05:12:20.805Z,100044.18
2018-07-07T05:14:50.990Z,100043.78
2018-07-07T05:17:21.262Z,100044.07
2018-07-07T05:19:52.001Z,100045.50
2018-07-07T05:22:22.818Z,100051.20
2018-07-07T05:24:53.698Z,100053.16
2018-07-07T05:27:24.486Z,100059.80
2018-07-07T05:29:55.346Z,100054.52
2018-07-07T05:32:26.190Z,100063.91
2018-07-07T05:34:56.977Z,100070.83
2018-07-07T05:37:27.778Z,100063.76
2018-07-07T05:39:58.594Z,100063.21
2018-07-07T05:42:29.490Z,100059.23
2018-07-07T05:45:00.281Z,100058.06
2018-07-07T05:47:31.066Z,100068.17
2018-07-07T05:50:01.882Z,100064.60
2018-07-07T05:52:32.953Z,100066.77
2018-07-07T05:55:04.238Z,100057.84
2018-07-07T05:57:35.028Z,100075.62
2018-07-07T06:00:06.074Z,100070.94
2018-07-07T06:02:36.659Z,100079.08
2018-07-07T06:05:07.650Z,100071.05
2018-07-07T06:07:38.465Z,100073.88
2018-07-07T06:10:09.334Z,100074.48
2018-07-07T06:12:39.809Z,100072.84
2018-07-07T06:15:10.896Z,100086.45
2018-07-07T06:17:41.371Z,100082.73
2018-07-07T06:20:11.861Z,100079.25
2018-07-07T06:22:42.670Z,100079.23
2018-07-07T06:25:13.248Z,100077.92
2018-07-07T06:27:43.505Z,100083.43
2018-07-07T06:30:14.018Z,100092.06
2018-07-07T06:32:44.499Z,100084.59
2018-07-07T06:35:15.156Z,100083.46
2018-07-07T06:37:45.677Z,100088.36
2018-07-07T06:40:16.140Z,100086.77
2018-07-07T06:42:46.767Z,100084.60
2018-07-07T06:45:17.257Z,100088.97
2018-07-07T06:47:47.818Z,100089.44
2018-07-07T06:50:18.094Z,100093.88
2018-07-07T06:52:48.661Z,100095.39
2018-07-07T06:55:19.190Z,100100.97
2018-07-07T06:57:49.802Z,100095.22
2018-07-07T07:00:20.313Z,100091.91
2018-07-07T07:05:27.054Z,100083.05
2018-07-07T07:07:57.568Z,100092.38
2018-07-07T07:10:28.063Z,100087.01
2018-07-07T07:12:58.573Z,100088.75
2018-07-07T07:15:29.113Z,100088.88
2018-07-07T07:17:59.794Z,100090.86
2018-07-07T07:20:30.263Z,100090.66
2018-07-07T07:23:00.817Z,100091.89
2018-07-07T07:25:31.337Z,100107.61
2018-07-07T07:28:01.873Z,100101.48
2018-07-07T07:30:32.365Z,100104.13
2018-07-07T07:33:02.929Z,100097.63
2018-07-07T07:35:33.436Z,100093.90
2018-07-07T07:38:03.783Z,100099.47
2018-07-07T07:40:34.353Z,100105.50
2018-07-07T07:43:05.072Z,100105.45
2018-07-07T07:45:35.349Z,100101.87
2018-07-07T07:48:05.862Z,100104.90
2018-07-07T07:50:36.095Z,100099.86
2018-07-07T07:53:06.616Z,100100.03
2018-07-07T07:55:37.101Z,100108.47
2018-07-07T07:58:07.418Z,100100.42
2018-07-07T08:00:37.681Z,100098.64
2018-07-07T08:03:10.010Z,100105.84
2018-07-07T08:05:40.637Z,100100.27
2018-07-07T08:08:11.159Z,100104.27
2018-07-07T08:10:41.661Z,100106.39
2018-07-07T08:13:12.151Z,100097.81
2018-07-07T08:15:42.637Z,100099.25
2018-07-07T08:18:13.146Z,100094.98
2018-07-07T08:20:43.617Z,100100.09
2018-07-07T08:23:14.229Z,100095.98
2018-07-07T08:25:44.716Z,100096.31
2018-07-07T08:28:15.251Z,100086.91
2018-07-07T08:30:45.793Z,100091.09
2018-07-07T08:33:16.342Z,100087.45
2018-07-07T08:35:46.809Z,100081.55
2018-07-07T08:38:18.458Z,100087.42
2018-07-07T08:40:48.953Z,100087.08
2018-07-07T08:43:20.572Z,100082.52
2018-07-07T08:45:51.049Z,100081.13
2018-07-07T08:48:21.686Z,100083.16
2018-07-07T08:50:52.173Z,100079.19
2018-07-07T08:53:22.716Z,100077.33
2018-07-07T08:55:53.249Z,100079.88
2018-07-07T08:58:23.750Z,100077.08
2018-07-07T09:00:54.209Z,100066.00
2018-07-07T09:03:24.697Z,100064.97
2018-07-07T09:05:55.190Z,100075.71
2018-07-07T09:08:25.805Z,100068.55
2018-07-07T09:10:56.308Z,100066.30
2018-07-07T09:13:26.881Z,100070.77
2018-07-07T09:15:57.367Z,100067.42
2018-07-07T09:18:27.885Z,100071.33
2018-07-07T09:20:58.396Z,100063.98
2018-07-07T09:23:28.933Z,100058.14
2018-07-07T09:25:59.405Z,100062.52
2018-07-07T09:28:29.925Z,100064.36
2018-07-07T09:31:00.805Z,100060.06
2018-07-07T09:33:31.359Z,100061.64
2018-07-07T09:36:01.866Z,100056.89
2018-07-07T09:38:32.471Z,100061.45
2018-07-07T09:41:03.098Z,100057.32
2018-07-07T09:43:33.612Z,100063.33
2018-07-07T09:46:04.100Z,100047.91
2018-07-07T09:48:34.589Z,100059.70
2018-07-07T09:51:05.402Z,100050.93
2018-07-07T09:53:36.214Z,100051.45
2018-07-07T09:56:07.141Z,100057.45
2018-07-07T09:58:37.947Z,100057.63
2018-07-07T10:01:08.788Z,100056.59
2018-07-07T10:03:39.634Z,100058.02
2018-07-07T10:06:10.424Z,100052.71
2018-07-07T10:08:41.266Z,100057.33
2018-07-07T10:11:12.083Z,100054.91
2018-07-07T10:13:43.141Z,100048.69
2018-07-07T10:16:13.969Z,100050.08
2018-07-07T10:18:45.522Z,100043.47
2018-07-07T10:21:16.366Z,100040.02
2018-07-07T10:23:47.188Z,100043.47
2018-07-07T10:26:18.326Z,100047.13
2018-07-07T10:28:49.402Z,100046.17
2018-07-07T10:31:20.185Z,100049.70
2018-07-07T10:33:50.975Z,100044.30
2018-07-07T10:36:21.757Z,100042.95
2018-07-07T10:38:52.550Z,100038.66
2018-07-07T10:41:23.353Z,100038.47
2018-07-07T10:43:54.380Z,100042.33
2018-07-07T10:46:25.158Z,100037.50
2018-07-07T10:48:56.010Z,100031.67
2018-07-07T10:51:27.025Z,100029.64
2018-07-07T10:53:57.847Z,100031.86
2018-07-07T10:56:28.626Z,100028.82
2018-07-07T10:58:59.442Z,100027.73
2018-07-07T11:01:30.291Z,100028.41
2018-07-07T11:04:01.127Z,100038.70
2018-07-07T11:06:31.914Z,100030.19
2018-07-07T11:09:02.778Z,100036.48
2018-07-07T11:11:33.528Z,100029.27
2018-07-07T11:14:04.396Z,100030.81
2018-07-07T11:16:35.213Z,100028.66
2018-07-07T11:19:06.112Z,100027.08
2018-07-07T11:21:36.868Z,100023.22
2018-07-07T11:24:07.833Z,100024.14
2018-07-07T11:26:38.577Z,100021.39
2018-07-07T11:29:09.442Z,100025.84
2018-07-07T11:31:40.253Z,100028.27
2018-07-07T11:34:11.086Z,100023.25
2018-07-07T11:36:42.057Z,100022.47
2018-07-07T11:39:12.964Z,100021.72
2018-07-07T11:41:43.823Z,100019.44
2018-07-07T11:44:14.758Z,100016.53
2018-07-07T11:46:45.582Z,100021.86
2018-07-07T11:49:16.432Z,100011.66
2018-07-07T11:51:47.311Z,100014.81
2018-07-07T11:54:18.152Z,100012.09
2018-07-07T11:56:48.914Z,100004.09
2018-07-07T11:59:19.740Z,100011.23
2018-07-07T12:01:50.575Z,100005.82
2018-07-07T12:04:21.436Z,99999.19
2018-07-07T12:06:52.229Z,100008.17
2018-07-07T12:09:23.154Z,99998.69
2018-07-07T12:11:53.922Z,99993.17
2018-07-07T12:14:24.705Z,99995.77
2018-07-07T12:16:55.486Z,100001.34
2018-07-07T12:19:26.383Z,99986.84
2018-07-07T12:21:57.184Z,99981.54
2018-07-07T12:24:28.001Z,99980.73
2018-07-07T12:26:58.854Z,99981.56
2018-07-07T12:29:29.652Z,99984.88
2018-07-07T12:32:00.417Z,99977.44
2018-07-07T12:34:31.190Z,99985.14
2018-07-07T12:37:01.949Z,99979.30
2018-07-07T12:39:32.749Z,99973.00
2018-07-07T12:42:03.529Z,99974.45
2018-07-07T12:44:34.481Z,99974.30
2018-07-07T12:47:05.245Z,99971.63
2018-07-07T12:49:36.044Z,99967.25
2018-07-07T12:52:06.821Z,99961.94
2018-07-07T12:54:37.645Z,99964.91
2018-07-07T12:57:08.430Z,99970.59
2018-07-07T12:59:39.193Z,99961.31
2018-07-07T13:02:09.972Z,99962.61
2018-07-07T13:04:40.749Z,99954.82
2018-07-07T13:07:11.522Z,99955.56
2018-07-07T13:09:42.645Z,99953.55
2018-07-07T13:12:13.366Z,99956.31
2018-07-07T13:14:44.586Z,99960.38
2018-07-07T13:17:15.374Z,99954.05
2018-07-07T13:19:46.177Z,99952.43
2018-07-07T13:22:16.931Z,99954.33
2018-07-07T13:24:47.745Z,99994.94
2018-07-07T13:27:19.963Z,99973.47
2018-07-07T13:29:51.874Z,99956.30
2018-07-07T13:32:22.616Z,99951.55
2018-07-07T13:34:53.423Z,99955.37
2018-07-07T13:37:24.222Z,99964.82
2018-07-07T13:39:55.045Z,99955.37
2018-07-07T13:42:25.795Z,99947.48
2018-07-07T13:44:56.706Z,99967.05
2018-07-07T13:47:27.466Z,99969.78
2018-07-07T13:49:58.287Z,99958.06
2018-07-07T13:52:29.074Z,99964.16
2018-07-07T13:54:59.853Z,100030.13
2018-07-07T13:57:30.981Z,99980.33
2018-07-07T14:00:01.781Z,99984.55
2018-07-07T14:02:32.378Z,99998.45
2018-07-07T14:05:03.519Z,99991.36
2018-07-07T14:07:34.666Z,100010.19
2018-07-07T14:10:05.769Z,100020.36
2018-07-07T14:12:36.515Z,100022.22
2018-07-07T14:15:07.325Z,99972.68
2018-07-07T14:17:38.082Z,99975.75
2018-07-07T14:20:08.871Z,99970.83
2018-07-07T14:22:39.674Z,99979.30
2018-07-07T14:25:10.498Z,99972.20
2018-07-07T14:27:41.287Z,99975.21
2018-07-07T14:30:12.068Z,99968.91
2018-07-07T14:32:42.829Z,99967.54
2018-07-07T14:35:13.711Z,99970.13
2018-07-07T14:37:45.011Z,99966.00
2018-07-07T14:40:15.868Z,99960.38
2018-07-07T14:42:49.599Z,99961.67
2018-07-07T14:45:22.632Z,99968.94
2018-07-07T14:47:55.003Z,99957.41
2018-07-07T14:50:26.056Z,99961.81
2018-07-07T14:52:56.833Z,99956.48
2018-07-07T14:55:28.810Z,99957.75
2018-07-07T14:57:59.624Z,99952.46
2018-07-07T15:00:30.655Z,99960.92
2018-07-07T15:03:01.495Z,99948.88
2018-07-07T15:05:32.294Z,99950.58
2018-07-07T15:08:03.078Z,99955.98
2018-07-07T15:10:33.876Z,99956.29
2018-07-07T15:13:05.015Z,99958.50
2018-07-07T15:15:35.875Z,99951.36
2018-07-07T15:18:06.865Z,99958.80
2018-07-07T15:20:37.647Z,99956.41
2018-07-07T15:23:08.422Z,99953.88
2018-07-07T15:25:39.221Z,99956.63
2018-07-07T15:28:10.007Z,99956.69
2018-07-07T15:30:41.033Z,99957.91
2018-07-07T15:33:12.165Z,99956.30
2018-07-07T15:35:42.960Z,99961.56
2018-07-07T15:38:13.704Z,99964.94
2018-07-07T15:40:44.531Z,99959.29
2018-07-07T15:43:15.657Z,99961.61
2018-07-07T15:45:46.490Z,99961.79
2018-07-07T15:48:17.277Z,99967.23
2018-07-07T15:50:48.092Z,99972.84
2018-07-07T15:53:18.853Z,99968.51
2018-07-07T15:55:49.625Z,99965.27
2018-07-07T15:58:20.412Z,99970.44
2018-07-07T16:00:51.215Z,99974.92
2018-07-07T16:03:22.022Z,99976.49
2018-07-07T16:05:53.175Z,99977.21
2018-07-07T16:08:24.041Z,99972.34
2018-07-07T16:10:54.835Z,100120.88
2018-07-07T16:13:25.884Z,100124.61
2018-07-07T16:15:56.685Z,100125.28
2018-07-07T16:18:27.496Z,100128.27
2018-07-07T16:20:58.325Z,100122.00
2018-07-07T16:23:29.141Z,100117.34
2018-07-07T16:25:59.975Z,100136.11
2018-07-07T16:28:30.757Z,100135.02
2018-07-07T16:31:01.583Z,100107.42
2018-07-07T16:33:32.365Z,100114.17
2018-07-07T16:36:03.552Z,100101.44
2018-07-07T16:38:34.334Z,100103.89
2018-07-07T16:41:05.177Z,100096.88
2018-07-07T16:43:36.096Z,100103.43
2018-07-07T16:46:06.934Z,100088.68
2018-07-07T16:48:37.948Z,100066.72
2018-07-07T16:51:08.966Z,100059.12
2018-07-07T16:53:39.804Z,100067.47
2018-07-07T16:56:10.622Z,100064.58
2018-07-07T16:58:41.396Z,100066.52
2018-07-07T17:01:12.590Z,100067.13
2018-07-07T17:03:43.354Z,100062.89
2018-07-07T17:06:14.280Z,100063.14
2018-07-07T17:08:45.116Z,100064.47
2018-07-07T17:11:15.942Z,100088.20
2018-07-07T17:13:47.213Z,100067.45
2018-07-07T17:16:18.067Z,100064.70
2018-07-07T17:18:51.110Z,100065.77
2018-07-07T17:21:22.381Z,100061.17
2018-07-07T17:23:53.180Z,100058.85
2018-07-07T17:26:24.000Z,100061.98
2018-07-07T17:28:56.010Z,100067.05
2018-07-07T17:31:26.953Z,100070.43
2018-07-07T17:33:58.905Z,100062.89
2018-07-07T17:36:30.125Z,100069.00
2018-07-07T17:39:01.798Z,100066.91
2018-07-07T17:41:33.209Z,100061.49
2018-07-07T17:44:04.090Z,100069.73
2018-07-07T17:46:35.056Z,100062.44
2018-07-07T17:49:05.887Z,100062.44
2018-07-07T17:51:36.777Z,100059.08
2018-07-07T17:54:07.629Z,100055.58
2018-07-07T17:56:38.473Z,100051.36
2018-07-07T17:59:09.340Z,100063.97
2018-07-07T18:01:40.201Z,100063.50
2018-07-07T18:04:11.113Z,100067.07
2018-07-07T18:06:41.993Z,100066.34
2018-07-07T18:09:12.813Z,100062.28
2018-07-07T18:11:43.681Z,100074.78
2018-07-07T18:14:14.698Z,100065.23
2018-07-07T18:16:45.561Z,100072.09
2018-07-07T18:19:16.343Z,100075.98
2018-07-07T18:21:47.358Z,100074.92
2018-07-07T18:24:18.133Z,100071.94
2018-07-07T18:26:48.953Z,100070.69
2018-07-07T18:29:19.730Z,100073.38
2018-07-07T18:31:50.604Z,100077.55
2018-07-07T18:34:21.557Z,100077.09
2018-07-07T18:36:52.353Z,100072.62
2018-07-07T18:39:23.149Z,100073.76
2018-07-07T18:41:54.036Z,100084.55
2018-07-07T18:44:24.777Z,100084.39
2018-07-07T18:46:55.671Z,100086.41
2018-07-07T18:49:26.440Z,100084.62
2018-07-07T18:51:57.217Z,100085.23
2018-07-07T18:54:27.966Z,100086.64
2018-07-07T18:56:58.817Z,100082.36
2018-07-07T18:59:29.564Z,100084.32
2018-07-07T19:02:00.391Z,100078.38
2018-07-07T19:04:31.229Z,100083.53
2018-07-07T19:07:01.997Z,100084.91
2018-07-07T19:09:32.743Z,100091.17
2018-07-07T19:12:03.629Z,100092.26
2018-07-07T19:14:34.502Z,100091.98
2018-07-07T19:17:05.341Z,100112.92
2018-07-07T19:19:36.147Z,100106.31
2018-07-07T19:22:12.385Z,100115.23
2018-07-07T19:24:48.417Z,100120.09
2018-07-07T19:27:19.241Z,100116.51
2018-07-07T19:29:49.988Z,100115.11
2018-07-07T19:32:25.226Z,100118.59
2018-07-07T19:35:00.680Z,100125.30
2018-07-07T19:37:31.194Z,100121.22
2018-07-07T19:40:01.437Z,100131.19
2018-07-07T19:42:31.665Z,100131.98
2018-07-07T19:45:01.906Z,100131.66
2018-07-07T19:47:32.225Z,100125.59
2018-07-07T19:50:02.490Z,100132.30
2018-07-07T19:52:32.689Z,100141.98
2018-07-07T19:55:02.885Z,100112.70
2018-07-07T19:57:33.125Z,100109.67
2018-07-07T20:00:03.389Z,100105.55
2018-07-07T20:02:33.498Z,100089.53
2018-07-07T20:05:03.749Z,100093.82
2018-07-07T20:07:34.049Z,100091.05
2018-07-07T20:10:04.261Z,100084.25
2018-07-07T20:12:34.505Z,100084.42
2018-07-07T20:15:04.770Z,100088.70
2018-07-07T20:17:45.881Z,100083.00
2018-07-07T20:20:35.576Z,100089.20
2018-07-07T20:23:06.683Z,100088.32
2018-07-07T20:25:36.930Z,100086.37
2018-07-07T20:28:12.373Z,100091.23
2018-07-07T20:30:42.652Z,100092.30
2018-07-07T20:33:12.861Z,100090.42
2018-07-07T20:35:43.164Z,100093.12
2018-07-07T20:38:13.396Z,100089.59
2018-07-07T20:40:43.587Z,100089.34
2018-07-07T20:43:13.817Z,100089.86
2018-07-07T20:45:44.029Z,100090.38
2018-07-07T20:48:14.425Z,100091.55
2018-07-07T20:50:44.593Z,100091.78
2018-07-07T20:53:14.879Z,100087.18
2018-07-07T20:55:45.304Z,100083.66
2018-07-07T20:58:16.032Z,100109.66
2018-07-07T21:00:46.263Z,100093.39
2018-07-07T21:03:16.494Z,100089.05
2018-07-07T21:05:46.705Z,100087.69
2018-07-07T21:08:16.879Z,100088.77
2018-07-07T21:10:47.069Z,100088.48
2018-07-07T21:13:17.284Z,100089.84
2018-07-07T21:15:47.503Z,100088.26
2018-07-07T21:18:17.807Z,100092.04
2018-07-07T21:20:48.079Z,100089.05
2018-07-07T21:23:18.308Z,100087.13
2018-07-07T21:25:48.629Z,100090.03
2018-07-07T21:28:19.275Z,100091.39
2018-07-07T21:30:49.626Z,100093.28
2018-07-07T21:33:19.946Z,100094.83
2018-07-07T21:35:50.305Z,100097.16
2018-07-07T21:38:20.537Z,100102.00
2018-07-07T21:40:50.766Z,100100.83
2018-07-07T21:43:20.945Z,100100.22
2018-07-07T21:45:51.116Z,100101.79
2018-07-07T21:48:21.593Z,100101.17
2018-07-07T21:50:51.878Z,100101.64
2018-07-07T21:53:22.104Z,100097.45
2018-07-07T21:55:52.696Z,100097.94
2018-07-07T21:58:27.640Z,100094.14
2018-07-07T22:01:14.770Z,100099.27
2018-07-07T22:03:49.900Z,100096.56
2018-07-07T22:06:25.127Z,100097.66
2018-07-07T22:08:55.517Z,100094.42
2018-07-07T22:11:25.783Z,100096.07
2018-07-07T22:13:55.826Z,100092.69
2018-07-07T22:16:26.133Z,100094.59
2018-07-07T22:18:56.143Z,100098.63
2018-07-07T22:21:37.408Z,100094.75
2018-07-07T22:24:07.559Z,100092.83
2018-07-07T22:26:38.070Z,100101.10
2018-07-07T22:29:08.447Z,100099.39
2018-07-07T22:31:38.766Z,100092.27
2018-07-07T22:34:08.945Z,100092.25
2018-07-07T22:36:39.261Z,100090.34
2018-07-07T22:39:09.634Z,100092.78
2018-07-07T22:41:52.539Z,100091.44
2018-07-07T22:44:23.461Z,100090.34
2018-07-07T22:46:54.256Z,100090.03
2018-07-07T22:49:25.672Z,100090.00
2018-07-07T22:52:00.234Z,100088.34
2018-07-07T22:54:36.042Z,100085.02
2018-07-07T22:57:06.882Z,100085.56
2018-07-07T22:59:37.063Z,100084.75
2018-07-07T23:02:07.830Z,100084.97
2018-07-07T23:04:38.154Z,100084.38
2018-07-07T23:07:08.494Z,100084.97
2018-07-07T23:09:38.715Z,100086.24
2018-07-07T23:12:09.023Z,100074.22
2018-07-07T23:14:39.890Z,100079.34
2018-07-07T23:17:10.223Z,100085.34
2018-07-07T23:19:41.073Z,100082.87
2018-07-07T23:22:11.367Z,100081.41
2018-07-07T23:24:41.316Z,100082.16
2018-07-07T23:27:11.514Z,100084.55
2018-07-07T23:29:41.725Z,100082.52
2018-07-07T23:32:11.925Z,100085.07
2018-07-07T23:34:42.184Z,100085.45
2018-07-07T23:37:12.433Z,100084.50
2018-07-07T23:39:42.621Z,100082.23
2018-07-07T23:42:12.857Z,100084.84
2018-07-07T23:44:43.059Z,100084.17
2018-07-07T23:47:13.227Z,100085.14
2018-07-07T23:49:43.552Z,100083.44
2018-07-07T23:52:13.933Z,100082.62
2018-07-07T23:54:44.156Z,100084.08
2018-07-07T23:57:14.323Z,100088.44
2018-07-07T23:59:44.585Z,100085.31
